createdAt,value
2023-01-29T00:00:00.000Z,81.76
2023-01-29T00:15:00.000Z,82.21
2023-01-29T00:30:00.000Z,82.72
2023-01-29T00:45:00.000Z,82.76
2023-01-29T01:00:00.000Z,82.17
2023-01-29T01:15:00.000Z,81.47
2023-01-29T01:30:00.000Z,81.74
2023-01-29T01:45:00.000Z,81.65
2023-01-29T02:00:00.000Z,81.48
2023-01-29T02:15:00.000Z,81.19
2023-01-29T02:30:00.000Z,80.57
2023-01-29T02:45:00.000Z,80.09
2023-01-29T03:00:00.000Z,80.33
2023-01-29T03:15:00.000Z,79.71
2023-01-29T03:30:00.000Z,79.78
2023-01-29T03:45:00.000Z,79.67
2023-01-29T04:00:00.000Z,79.14
2023-01-29T04:15:00.000Z,79.2
2023-01-29T04:30:00.000Z,79.86
2023-01-29T04:45:00.000Z,80.05
2023-01-29T05:00:00.000Z,80.16
2023-01-29T05:15:00.000Z,80.85
2023-01-29T05:30:00.000Z,81.78
2023-01-29T05:45:00.000Z,82.41
2023-01-29T06:00:00.000Z,82.72
2023-01-29T06:15:00.000Z,83.02
2023-01-29T06:30:00.000Z,83.15
2023-01-29T06:45:00.000Z,83.34
2023-01-29T07:00:00.000Z,82.4
2023-01-29T07:15:00.000Z,81.49
2023-01-29T07:30:00.000Z,78.73
2023-01-29T07:45:00.000Z,75.99
2023-01-29T08:00:00.000Z,75.45
2023-01-29T08:15:00.000Z,73.39
2023-01-29T08:30:00.000Z,70.01
2023-01-29T08:45:00.000Z,68.26
2023-01-29T09:00:00.000Z,66.94
2023-01-29T09:15:00.000Z,65.53
2023-01-29T09:30:00.000Z,54.39
2023-01-29T09:45:00.000Z,50.38
2023-01-29T10:00:00.000Z,47.79
2023-01-29T10:15:00.000Z,52.71
2023-01-29T10:30:00.000Z,56.51
2023-01-29T10:45:00.000Z,57.23
2023-01-29T11:00:00.000Z,55.68
2023-01-29T11:15:00.000Z,56.13
2023-01-29T11:30:00.000Z,55.42
2023-01-29T11:45:00.000Z,55.16
2023-01-29T12:00:00.000Z,54.65
2023-01-29T12:15:00.000Z,55.57
2023-01-29T12:30:00.000Z,55.27
2023-01-29T12:45:00.000Z,55.07
2023-01-29T13:00:00.000Z,55.54
2023-01-29T13:15:00.000Z,57.28
2023-01-29T13:30:00.000Z,55.89
2023-01-29T13:45:00.000Z,55.79
2023-01-29T14:00:00.000Z,56.25
2023-01-29T14:15:00.000Z,57.62
2023-01-29T14:30:00.000Z,58.63
2023-01-29T14:45:00.000Z,61.26
2023-01-29T15:00:00.000Z,62.19
2023-01-29T15:15:00.000Z,63.96
2023-01-29T15:30:00.000Z,65.37
2023-01-29T15:45:00.000Z,66.81
2023-01-29T16:00:00.000Z,67.79
2023-01-29T16:15:00.000Z,68.72
2023-01-29T16:30:00.000Z,68.95
2023-01-29T16:45:00.000Z,68.95
2023-01-29T17:00:00.000Z,69.36
2023-01-29T17:15:00.000Z,69.8
2023-01-29T17:30:00.000Z,70.62
2023-01-29T17:45:00.000Z,70.14
2023-01-29T18:00:00.000Z,70.09
2023-01-29T18:15:00.000Z,70.06
2023-01-29T18:30:00.000Z,70.7
2023-01-29T18:45:00.000Z,71.04
2023-01-29T19:00:00.000Z,71.18
2023-01-29T19:15:00.000Z,71.65
2023-01-29T19:30:00.000Z,71.84
2023-01-29T19:45:00.000Z,72.05
2023-01-29T20:00:00.000Z,71.93
2023-01-29T20:15:00.000Z,72.18
2023-01-29T20:30:00.000Z,72.21
2023-01-29T20:45:00.000Z,73.49
2023-01-29T21:00:00.000Z,74.19
2023-01-29T21:15:00.000Z,75.65
2023-01-29T21:30:00.000Z,76.3
2023-01-29T21:45:00.000Z,76.98
2023-01-29T22:00:00.000Z,77.67
2023-01-29T22:15:00.000Z,77.96
2023-01-29T22:30:00.000Z,77.41
2023-01-29T22:45:00.000Z,77.59
2023-01-29T23:00:00.000Z,77.93
2023-01-29T23:15:00.000Z,78.81
2023-01-29T23:30:00.000Z,79.21
2023-01-29T23:45:00.000Z,79.23
